sensor_id;sensor_type;location;lat;lon;timestamp;temperature;humidity
34542;DHT22;20784;51.332;12.410;2023-08-07T00:01:42;16.00;99.90
34542;DHT22;20784;51.332;12.410;2023-08-07T00:04:07;16.00;99.90
34542;DHT22;20784;51.332;12.410;2023-08-07T00:06:33;16.00;99.90
34542;DHT22;20784;51.332;12.410;2023-08-07T00:08:59;15.90;99.90
34542;DHT22;20784;51.332;12.410;2023-08-07T00:11:24;16.00;99.90
34542;DHT22;20784;51.332;12.410;2023-08-07T00:13:50;16.00;99.90
34542;DHT22;20784;51.332;12.410;2023-08-07T00:16:16;16.00;99.90
34542;DHT22;20784;51.332;12.410;2023-08-07T00:18:41;16.00;99.90
34542;DHT22;20784;51.332;12.410;2023-08-07T00:21:07;16.00;99.90
34542;DHT22;20784;51.332;12.410;2023-08-07T00:23:33;16.00;99.90
34542;DHT22;20784;51.332;12.410;2023-08-07T00:25:59;16.00;99.90
34542;DHT22;20784;51.332;12.410;2023-08-07T00:28:24;16.00;99.90
34542;DHT22;20784;51.332;12.410;2023-08-07T00:30:50;16.00;99.90
34542;DHT22;20784;51.332;12.410;2023-08-07T00:33:15;15.90;99.90
34542;DHT22;20784;51.332;12.410;2023-08-07T00:35:41;15.90;99.90
34542;DHT22;20784;51.332;12.410;2023-08-07T00:38:07;16.00;99.90
34542;DHT22;20784;51.332;12.410;2023-08-07T00:40:39;15.90;99.90
34542;DHT22;20784;51.332;12.410;2023-08-07T00:43:05;16.00;99.90
34542;DHT22;20784;51.332;12.410;2023-08-07T00:45:41;16.10;99.90
34542;DHT22;20784;51.332;12.410;2023-08-07T00:48:07;16.00;99.90
34542;DHT22;20784;51.332;12.410;2023-08-07T00:50:40;15.90;99.90
34542;DHT22;20784;51.332;12.410;2023-08-07T00:53:07;16.00;99.90
34542;DHT22;20784;51.332;12.410;2023-08-07T00:55:35;16.00;99.90
34542;DHT22;20784;51.332;12.410;2023-08-07T00:58:01;16.10;99.90
34542;DHT22;20784;51.332;12.410;2023-08-07T01:00:30;16.00;99.90
34542;DHT22;20784;51.332;12.410;2023-08-07T01:02:56;16.00;99.90
34542;DHT22;20784;51.332;12.410;2023-08-07T01:05:24;16.00;99.90
34542;DHT22;20784;51.332;12.410;2023-08-07T01:07:50;16.00;99.90
34542;DHT22;20784;51.332;12.410;2023-08-07T01:10:25;15.80;99.90
34542;DHT22;20784;51.332;12.410;2023-08-07T01:13:00;16.00;99.90
34542;DHT22;20784;51.332;12.410;2023-08-07T01:15:30;16.00;99.90
34542;DHT22;20784;51.332;12.410;2023-08-07T01:17:59;15.90;99.90
34542;DHT22;20784;51.332;12.410;2023-08-07T01:20:25;15.90;99.90
34542;DHT22;20784;51.332;12.410;2023-08-07T01:22:50;15.90;99.90
34542;DHT22;20784;51.332;12.410;2023-08-07T01:25:16;15.90;99.90
34542;DHT22;20784;51.332;12.410;2023-08-07T01:27:50;15.90;99.90
34542;DHT22;20784;51.332;12.410;2023-08-07T01:30:38;16.00;99.90
34542;DHT22;20784;51.332;12.410;2023-08-07T01:33:14;15.90;99.90
34542;DHT22;20784;51.332;12.410;2023-08-07T01:35:44;15.90;99.90
34542;DHT22;20784;51.332;12.410;2023-08-07T01:38:11;15.90;99.90
34542;DHT22;20784;51.332;12.410;2023-08-07T01:40:39;15.80;99.90
34542;DHT22;20784;51.332;12.410;2023-08-07T01:43:05;15.90;99.90
34542;DHT22;20784;51.332;12.410;2023-08-07T01:45:30;16.00;99.90
34542;DHT22;20784;51.332;12.410;2023-08-07T01:47:59;15.90;99.90
34542;DHT22;20784;51.332;12.410;2023-08-07T01:50:25;15.80;99.90
34542;DHT22;20784;51.332;12.410;2023-08-07T01:52:51;15.90;99.90
34542;DHT22;20784;51.332;12.410;2023-08-07T01:55:18;15.80;99.90
34542;DHT22;20784;51.332;12.410;2023-08-07T01:57:44;15.80;99.90
34542;DHT22;20784;51.332;12.410;2023-08-07T02:00:10;15.80;99.90
34542;DHT22;20784;51.332;12.410;2023-08-07T02:02:36;15.80;99.90
34542;DHT22;20784;51.332;12.410;2023-08-07T02:05:02;15.80;99.90
34542;DHT22;20784;51.332;12.410;2023-08-07T02:07:28;15.80;99.90
34542;DHT22;20784;51.332;12.410;2023-08-07T02:09:54;15.70;99.90
34542;DHT22;20784;51.332;12.410;2023-08-07T02:12:22;15.80;99.90
34542;DHT22;20784;51.332;12.410;2023-08-07T02:14:48;15.70;99.90
34542;DHT22;20784;51.332;12.410;2023-08-07T02:17:16;15.70;99.90
34542;DHT22;20784;51.332;12.410;2023-08-07T02:19:41;15.70;99.90
34542;DHT22;20784;51.332;12.410;2023-08-07T02:22:07;15.70;99.90
34542;DHT22;20784;51.332;12.410;2023-08-07T02:24:32;15.70;99.90
34542;DHT22;20784;51.332;12.410;2023-08-07T02:26:58;15.70;99.90
34542;DHT22;20784;51.332;12.410;2023-08-07T02:29:23;15.70;99.90
34542;DHT22;20784;51.332;12.410;2023-08-07T02:31:49;15.80;99.90
34542;DHT22;20784;51.332;12.410;2023-08-07T02:34:18;15.70;99.90
34542;DHT22;20784;51.332;12.410;2023-08-07T02:36:43;15.80;99.90
34542;DHT22;20784;51.332;12.410;2023-08-07T02:39:09;15.70;99.90
34542;DHT22;20784;51.332;12.410;2023-08-07T02:41:35;15.70;99.90
34542;DHT22;20784;51.332;12.410;2023-08-07T02:44:00;15.70;99.90
34542;DHT22;20784;51.332;12.410;2023-08-07T02:46:26;15.70;99.90
34542;DHT22;20784;51.332;12.410;2023-08-07T02:48:51;15.70;99.90
34542;DHT22;20784;51.332;12.410;2023-08-07T02:51:19;15.60;99.90
34542;DHT22;20784;51.332;12.410;2023-08-07T02:53:44;15.70;99.90
34542;DHT22;20784;51.332;12.410;2023-08-07T02:56:10;15.70;99.90
34542;DHT22;20784;51.332;12.410;2023-08-07T02:58:36;15.70;99.90
34542;DHT22;20784;51.332;12.410;2023-08-07T03:01:05;15.70;99.90
34542;DHT22;20784;51.332;12.410;2023-08-07T03:03:31;15.70;99.90
34542;DHT22;20784;51.332;12.410;2023-08-07T03:05:57;15.70;99.90
34542;DHT22;20784;51.332;12.410;2023-08-07T03:08:23;15.70;99.90
34542;DHT22;20784;51.332;12.410;2023-08-07T03:10:56;15.70;99.90
34542;DHT22;20784;51.332;12.410;2023-08-07T03:13:23;15.60;99.90
34542;DHT22;20784;51.332;12.410;2023-08-07T03:15:49;15.70;99.90
34542;DHT22;20784;51.332;12.410;2023-08-07T03:18:16;15.70;99.90
34542;DHT22;20784;51.332;12.410;2023-08-07T03:20:42;15.70;99.90
34542;DHT22;20784;51.332;12.410;2023-08-07T03:23:11;15.60;99.90
34542;DHT22;20784;51.332;12.410;2023-08-07T03:25:37;15.60;99.90
34542;DHT22;20784;51.332;12.410;2023-08-07T03:28:05;15.70;99.90
34542;DHT22;20784;51.332;12.410;2023-08-07T03:30:31;15.60;99.90
34542;DHT22;20784;51.332;12.410;2023-08-07T03:32:57;15.70;99.90
34542;DHT22;20784;51.332;12.410;2023-08-07T03:35:22;15.60;99.90
34542;DHT22;20784;51.332;12.410;2023-08-07T03:37:48;15.60;99.90
34542;DHT22;20784;51.332;12.410;2023-08-07T03:40:16;15.70;99.90
34542;DHT22;20784;51.332;12.410;2023-08-07T03:42:45;15.60;99.90
34542;DHT22;20784;51.332;12.410;2023-08-07T03:45:11;15.80;99.90
34542;DHT22;20784;51.332;12.410;2023-08-07T03:47:39;15.70;99.90
34542;DHT22;20784;51.332;12.410;2023-08-07T03:50:07;15.70;99.90
34542;DHT22;20784;51.332;12.410;2023-08-07T03:52:36;15.60;99.90
34542;DHT22;20784;51.332;12.410;2023-08-07T03:55:02;15.70;99.90
34542;DHT22;20784;51.332;12.410;2023-08-07T03:57:27;15.70;99.90
34542;DHT22;20784;51.332;12.410;2023-08-07T03:59:53;15.60;99.90
34542;DHT22;20784;51.332;12.410;2023-08-07T04:02:19;15.60;99.90
34542;DHT22;20784;51.332;12.410;2023-08-07T04:04:45;15.60;99.90
34542;DHT22;20784;51.332;12.410;2023-08-07T04:07:10;15.60;99.90
34542;DHT22;20784;51.332;12.410;2023-08-07T04:09:36;15.60;99.90
34542;DHT22;20784;51.332;12.410;2023-08-07T04:12:04;15.60;99.90
34542;DHT22;20784;51.332;12.410;2023-08-07T04:14:35;15.50;99.90
34542;DHT22;20784;51.332;12.410;2023-08-07T04:17:05;15.50;99.90
34542;DHT22;20784;51.332;12.410;2023-08-07T04:19:31;15.50;99.90
34542;DHT22;20784;51.332;12.410;2023-08-07T04:21:56;15.50;99.90
34542;DHT22;20784;51.332;12.410;2023-08-07T04:24:22;15.50;99.90
34542;DHT22;20784;51.332;12.410;2023-08-07T04:26:47;15.50;99.90
34542;DHT22;20784;51.332;12.410;2023-08-07T04:29:13;15.50;99.90
34542;DHT22;20784;51.332;12.410;2023-08-07T04:31:38;15.50;99.90
34542;DHT22;20784;51.332;12.410;2023-08-07T04:34:04;15.50;99.90
34542;DHT22;20784;51.332;12.410;2023-08-07T04:36:30;15.50;99.90
34542;DHT22;20784;51.332;12.410;2023-08-07T04:38:56;15.60;99.90
34542;DHT22;20784;51.332;12.410;2023-08-07T04:41:21;15.60;99.90
34542;DHT22;20784;51.332;12.410;2023-08-07T04:43:47;15.50;99.90
34542;DHT22;20784;51.332;12.410;2023-08-07T04:46:14;15.50;99.90
34542;DHT22;20784;51.332;12.410;2023-08-07T04:48:40;15.60;99.90
34542;DHT22;20784;51.332;12.410;2023-08-07T04:51:05;15.60;99.90
34542;DHT22;20784;51.332;12.410;2023-08-07T04:53:31;15.60;99.90
34542;DHT22;20784;51.332;12.410;2023-08-07T04:55:56;15.60;99.90
34542;DHT22;20784;51.332;12.410;2023-08-07T04:58:22;15.70;99.90
34542;DHT22;20784;51.332;12.410;2023-08-07T05:00:57;15.70;99.90
34542;DHT22;20784;51.332;12.410;2023-08-07T05:03:24;15.60;99.90
34542;DHT22;20784;51.332;12.410;2023-08-07T05:05:50;15.70;99.90
34542;DHT22;20784;51.332;12.410;2023-08-07T05:08:16;15.60;99.90
34542;DHT22;20784;51.332;12.410;2023-08-07T05:10:42;15.70;99.90
34542;DHT22;20784;51.332;12.410;2023-08-07T05:13:07;15.70;99.90
34542;DHT22;20784;51.332;12.410;2023-08-07T05:15:33;15.70;99.90
34542;DHT22;20784;51.332;12.410;2023-08-07T05:17:59;15.70;99.90
34542;DHT22;20784;51.332;12.410;2023-08-07T05:20:25;15.70;99.90
34542;DHT22;20784;51.332;12.410;2023-08-07T05:22:50;15.90;99.90
34542;DHT22;20784;51.332;12.410;2023-08-07T05:25:16;15.80;99.90
34542;DHT22;20784;51.332;12.410;2023-08-07T05:27:43;15.90;99.90
34542;DHT22;20784;51.332;12.410;2023-08-07T05:30:09;16.00;99.90
34542;DHT22;20784;51.332;12.410;2023-08-07T05:32:35;16.00;99.90
34542;DHT22;20784;51.332;12.410;2023-08-07T05:35:05;15.90;99.90
34542;DHT22;20784;51.332;12.410;2023-08-07T05:37:32;15.90;99.90
34542;DHT22;20784;51.332;12.410;2023-08-07T05:39:58;15.90;99.90
34542;DHT22;20784;51.332;12.410;2023-08-07T05:42:24;15.80;99.90
34542;DHT22;20784;51.332;12.410;2023-08-07T05:44:49;15.90;99.90
34542;DHT22;20784;51.332;12.410;2023-08-07T05:47:15;15.90;99.90
34542;DHT22;20784;51.332;12.410;2023-08-07T05:49:41;16.00;99.90
34542;DHT22;20784;51.332;12.410;2023-08-07T05:52:07;16.00;99.90
34542;DHT22;20784;51.332;12.410;2023-08-07T05:54:32;16.00;99.90
34542;DHT22;20784;51.332;12.410;2023-08-07T05:56:58;16.10;99.90
34542;DHT22;20784;51.332;12.410;2023-08-07T05:59:29;16.10;99.90
34542;DHT22;20784;51.332;12.410;2023-08-07T06:01:55;16.30;99.90
34542;DHT22;20784;51.332;12.410;2023-08-07T06:04:21;16.20;99.90
34542;DHT22;20784;51.332;12.410;2023-08-07T06:06:50;16.30;99.90
34542;DHT22;20784;51.332;12.410;2023-08-07T06:09:17;16.30;99.90
34542;DHT22;20784;51.332;12.410;2023-08-07T06:11:46;16.30;99.90
34542;DHT22;20784;51.332;12.410;2023-08-07T06:14:15;16.40;99.90
34542;DHT22;20784;51.332;12.410;2023-08-07T06:16:40;16.40;99.90
34542;DHT22;20784;51.332;12.410;2023-08-07T06:19:06;16.50;99.90
34542;DHT22;20784;51.332;12.410;2023-08-07T06:21:31;16.40;99.90
34542;DHT22;20784;51.332;12.410;2023-08-07T06:23:57;16.30;99.90
34542;DHT22;20784;51.332;12.410;2023-08-07T06:26:23;16.30;99.90
34542;DHT22;20784;51.332;12.410;2023-08-07T06:28:48;16.30;99.90
34542;DHT22;20784;51.332;12.410;2023-08-07T06:31:18;16.40;99.90
34542;DHT22;20784;51.332;12.410;2023-08-07T06:33:44;16.30;99.90
34542;DHT22;20784;51.332;12.410;2023-08-07T06:36:09;16.30;99.90
34542;DHT22;20784;51.332;12.410;2023-08-07T06:38:35;16.40;99.90
34542;DHT22;20784;51.332;12.410;2023-08-07T06:41:01;16.40;99.90
34542;DHT22;20784;51.332;12.410;2023-08-07T06:43:26;16.60;99.90
34542;DHT22;20784;51.332;12.410;2023-08-07T06:45:53;16.50;99.90
34542;DHT22;20784;51.332;12.410;2023-08-07T06:48:19;16.60;99.90
34542;DHT22;20784;51.332;12.410;2023-08-07T06:50:47;16.70;99.90
34542;DHT22;20784;51.332;12.410;2023-08-07T06:53:12;16.90;99.90
34542;DHT22;20784;51.332;12.410;2023-08-07T06:55:38;17.00;99.90
34542;DHT22;20784;51.332;12.410;2023-08-07T06:58:04;17.10;99.90
34542;DHT22;20784;51.332;12.410;2023-08-07T07:00:29;17.20;99.90
34542;DHT22;20784;51.332;12.410;2023-08-07T07:02:55;17.50;99.90
34542;DHT22;20784;51.332;12.410;2023-08-07T07:05:21;17.60;99.90
34542;DHT22;20784;51.332;12.410;2023-08-07T07:07:49;17.60;99.90
34542;DHT22;20784;51.332;12.410;2023-08-07T07:10:15;17.80;99.90
34542;DHT22;20784;51.332;12.410;2023-08-07T07:12:43;17.80;99.90
34542;DHT22;20784;51.332;12.410;2023-08-07T07:15:09;17.80;99.90
34542;DHT22;20784;51.332;12.410;2023-08-07T07:17:35;17.60;99.90
34542;DHT22;20784;51.332;12.410;2023-08-07T07:20:03;17.80;99.90
34542;DHT22;20784;51.332;12.410;2023-08-07T07:22:29;17.90;99.90
34542;DHT22;20784;51.332;12.410;2023-08-07T07:24:55;18.10;99.90
34542;DHT22;20784;51.332;12.410;2023-08-07T07:27:20;18.20;99.90
34542;DHT22;20784;51.332;12.410;2023-08-07T07:29:48;18.10;99.90
34542;DHT22;20784;51.332;12.410;2023-08-07T07:32:13;18.10;99.90
34542;DHT22;20784;51.332;12.410;2023-08-07T07:34:39;18.20;99.90
34542;DHT22;20784;51.332;12.410;2023-08-07T07:37:05;18.10;99.90
34542;DHT22;20784;51.332;12.410;2023-08-07T07:39:30;18.00;99.90
34542;DHT22;20784;51.332;12.410;2023-08-07T07:41:56;18.00;99.90
34542;DHT22;20784;51.332;12.410;2023-08-07T07:44:21;17.90;99.90
34542;DHT22;20784;51.332;12.410;2023-08-07T07:46:47;18.20;99.90
34542;DHT22;20784;51.332;12.410;2023-08-07T07:49:13;18.40;99.90
34542;DHT22;20784;51.332;12.410;2023-08-07T07:51:41;18.30;99.90
34542;DHT22;20784;51.332;12.410;2023-08-07T07:54:10;18.40;99.90
34542;DHT22;20784;51.332;12.410;2023-08-07T07:56:35;18.50;99.90
34542;DHT22;20784;51.332;12.410;2023-08-07T07:59:01;18.80;99.90
34542;DHT22;20784;51.332;12.410;2023-08-07T08:01:27;18.90;99.90
34542;DHT22;20784;51.332;12.410;2023-08-07T08:03:53;18.90;99.90
34542;DHT22;20784;51.332;12.410;2023-08-07T08:06:19;19.20;99.90
34542;DHT22;20784;51.332;12.410;2023-08-07T08:08:45;19.50;99.90
34542;DHT22;20784;51.332;12.410;2023-08-07T08:11:11;19.60;99.90
34542;DHT22;20784;51.332;12.410;2023-08-07T08:13:37;19.50;99.90
34542;DHT22;20784;51.332;12.410;2023-08-07T08:16:05;19.40;99.90
34542;DHT22;20784;51.332;12.410;2023-08-07T08:18:31;19.20;99.90
34542;DHT22;20784;51.332;12.410;2023-08-07T08:20:57;19.20;99.90
34542;DHT22;20784;51.332;12.410;2023-08-07T08:23:22;19.30;99.90
34542;DHT22;20784;51.332;12.410;2023-08-07T08:25:49;19.00;99.90
34542;DHT22;20784;51.332;12.410;2023-08-07T08:28:15;19.00;99.90
34542;DHT22;20784;51.332;12.410;2023-08-07T08:30:43;19.10;99.90
34542;DHT22;20784;51.332;12.410;2023-08-07T08:33:09;19.00;99.90
34542;DHT22;20784;51.332;12.410;2023-08-07T08:35:40;18.90;99.90
34542;DHT22;20784;51.332;12.410;2023-08-07T08:38:06;18.90;99.90
34542;DHT22;20784;51.332;12.410;2023-08-07T08:40:33;18.70;99.90
34542;DHT22;20784;51.332;12.410;2023-08-07T08:43:02;18.50;99.90
34542;DHT22;20784;51.332;12.410;2023-08-07T08:45:29;18.40;99.90
34542;DHT22;20784;51.332;12.410;2023-08-07T08:48:02;18.50;99.90
34542;DHT22;20784;51.332;12.410;2023-08-07T08:50:28;18.70;99.90
34542;DHT22;20784;51.332;12.410;2023-08-07T08:52:56;19.00;99.90
34542;DHT22;20784;51.332;12.410;2023-08-07T08:55:23;19.00;99.90
34542;DHT22;20784;51.332;12.410;2023-08-07T08:57:49;19.10;99.90
34542;DHT22;20784;51.332;12.410;2023-08-07T09:00:16;19.20;99.90
34542;DHT22;20784;51.332;12.410;2023-08-07T09:02:50;19.40;99.90
34542;DHT22;20784;51.332;12.410;2023-08-07T09:05:19;19.40;99.90
34542;DHT22;20784;51.332;12.410;2023-08-07T09:07:52;19.50;99.90
34542;DHT22;20784;51.332;12.410;2023-08-07T09:10:20;19.40;99.90
34542;DHT22;20784;51.332;12.410;2023-08-07T09:13:08;19.40;99.90
34542;DHT22;20784;51.332;12.410;2023-08-07T09:15:38;19.40;99.90
34542;DHT22;20784;51.332;12.410;2023-08-07T09:18:09;19.20;99.90
34542;DHT22;20784;51.332;12.410;2023-08-07T09:20:36;19.20;99.90
34542;DHT22;20784;51.332;12.410;2023-08-07T09:23:05;19.20;99.90
34542;DHT22;20784;51.332;12.410;2023-08-07T09:25:31;19.40;99.90
34542;DHT22;20784;51.332;12.410;2023-08-07T09:28:01;19.80;99.90
34542;DHT22;20784;51.332;12.410;2023-08-07T09:30:30;20.20;99.90
34542;DHT22;20784;51.332;12.410;2023-08-07T09:33:00;20.30;99.90
34542;DHT22;20784;51.332;12.410;2023-08-07T09:35:26;20.30;99.90
34542;DHT22;20784;51.332;12.410;2023-08-07T09:37:52;20.60;99.90
34542;DHT22;20784;51.332;12.410;2023-08-07T09:40:18;20.70;99.90
34542;DHT22;20784;51.332;12.410;2023-08-07T09:42:44;20.50;99.90
34542;DHT22;20784;51.332;12.410;2023-08-07T09:45:23;20.50;99.90
34542;DHT22;20784;51.332;12.410;2023-08-07T09:48:10;20.80;99.90
34542;DHT22;20784;51.332;12.410;2023-08-07T09:50:37;21.00;99.90
34542;DHT22;20784;51.332;12.410;2023-08-07T09:53:02;21.20;99.90
34542;DHT22;20784;51.332;12.410;2023-08-07T09:55:28;21.20;99.90
34542;DHT22;20784;51.332;12.410;2023-08-07T09:57:54;21.20;99.90
34542;DHT22;20784;51.332;12.410;2023-08-07T10:00:23;21.20;99.90
34542;DHT22;20784;51.332;12.410;2023-08-07T10:02:50;21.00;99.90
34542;DHT22;20784;51.332;12.410;2023-08-07T10:05:16;21.10;99.90
34542;DHT22;20784;51.332;12.410;2023-08-07T10:07:42;20.90;99.90
34542;DHT22;20784;51.332;12.410;2023-08-07T10:10:08;20.50;99.90
34542;DHT22;20784;51.332;12.410;2023-08-07T10:12:36;20.00;99.90
34542;DHT22;20784;51.332;12.410;2023-08-07T10:15:05;19.70;99.90
34542;DHT22;20784;51.332;12.410;2023-08-07T10:17:32;19.70;99.90
34542;DHT22;20784;51.332;12.410;2023-08-07T10:19:58;19.50;99.90
34542;DHT22;20784;51.332;12.410;2023-08-07T10:22:26;19.20;99.90
34542;DHT22;20784;51.332;12.410;2023-08-07T10:24:55;19.00;99.90
34542;DHT22;20784;51.332;12.410;2023-08-07T10:27:23;19.00;99.90
34542;DHT22;20784;51.332;12.410;2023-08-07T10:29:51;18.70;99.90
34542;DHT22;20784;51.332;12.410;2023-08-07T10:32:20;18.70;99.90
34542;DHT22;20784;51.332;12.410;2023-08-07T10:34:55;18.90;99.90
34542;DHT22;20784;51.332;12.410;2023-08-07T10:37:51;18.80;99.90
34542;DHT22;20784;51.332;12.410;2023-08-07T10:40:16;19.00;99.90
34542;DHT22;20784;51.332;12.410;2023-08-07T10:45:21;19.10;99.90
34542;DHT22;20784;51.332;12.410;2023-08-07T10:48:17;18.80;99.90
34542;DHT22;20784;51.332;12.410;2023-08-07T10:51:02;18.80;99.90
34542;DHT22;20784;51.332;12.410;2023-08-07T10:53:30;18.70;99.90
34542;DHT22;20784;51.332;12.410;2023-08-07T10:55:56;18.70;99.90
34542;DHT22;20784;51.332;12.410;2023-08-07T10:58:29;18.90;99.90
34542;DHT22;20784;51.332;12.410;2023-08-07T11:03:59;19.30;99.90
34542;DHT22;20784;51.332;12.410;2023-08-07T11:06:30;19.70;99.90
34542;DHT22;20784;51.332;12.410;2023-08-07T11:08:59;19.70;99.90
34542;DHT22;20784;51.332;12.410;2023-08-07T11:11:27;19.60;99.90
34542;DHT22;20784;51.332;12.410;2023-08-07T11:13:52;19.70;99.90
34542;DHT22;20784;51.332;12.410;2023-08-07T11:16:21;19.70;99.90
34542;DHT22;20784;51.332;12.410;2023-08-07T11:18:48;19.60;99.90
34542;DHT22;20784;51.332;12.410;2023-08-07T11:21:17;19.50;99.90
34542;DHT22;20784;51.332;12.410;2023-08-07T11:23:44;19.60;99.90
34542;DHT22;20784;51.332;12.410;2023-08-07T11:26:17;19.70;99.90
34542;DHT22;20784;51.332;12.410;2023-08-07T11:28:43;19.80;99.90
34542;DHT22;20784;51.332;12.410;2023-08-07T11:31:08;19.90;99.90
34542;DHT22;20784;51.332;12.410;2023-08-07T11:33:36;19.90;99.90
34542;DHT22;20784;51.332;12.410;2023-08-07T11:36:01;20.10;99.90
34542;DHT22;20784;51.332;12.410;2023-08-07T11:38:41;20.20;99.90
34542;DHT22;20784;51.332;12.410;2023-08-07T11:41:13;20.50;99.90
34542;DHT22;20784;51.332;12.410;2023-08-07T11:43:40;20.70;99.90
34542;DHT22;20784;51.332;12.410;2023-08-07T11:46:09;20.80;99.90
34542;DHT22;20784;51.332;12.410;2023-08-07T11:48:37;20.80;99.90
34542;DHT22;20784;51.332;12.410;2023-08-07T11:51:04;20.50;99.90
34542;DHT22;20784;51.332;12.410;2023-08-07T11:53:40;20.40;99.90
34542;DHT22;20784;51.332;12.410;2023-08-07T11:56:13;20.40;99.90
34542;DHT22;20784;51.332;12.410;2023-08-07T11:58:47;20.40;99.90
34542;DHT22;20784;51.332;12.410;2023-08-07T12:01:23;20.50;99.90
34542;DHT22;20784;51.332;12.410;2023-08-07T12:06:30;20.30;99.90
34542;DHT22;20784;51.332;12.410;2023-08-07T12:08:56;20.40;99.90
34542;DHT22;20784;51.332;12.410;2023-08-07T12:11:22;20.60;99.90
34542;DHT22;20784;51.332;12.410;2023-08-07T12:13:49;20.90;99.90
34542;DHT22;20784;51.332;12.410;2023-08-07T12:16:15;21.00;99.90
34542;DHT22;20784;51.332;12.410;2023-08-07T12:18:50;21.00;99.90
34542;DHT22;20784;51.332;12.410;2023-08-07T12:21:21;20.80;99.90
34542;DHT22;20784;51.332;12.410;2023-08-07T12:23:49;20.20;99.90
34542;DHT22;20784;51.332;12.410;2023-08-07T12:26:16;19.90;99.90
34542;DHT22;20784;51.332;12.410;2023-08-07T12:28:42;20.10;99.90
34542;DHT22;20784;51.332;12.410;2023-08-07T12:31:08;20.60;99.90
34542;DHT22;20784;51.332;12.410;2023-08-07T12:33:34;21.00;99.90
34542;DHT22;20784;51.332;12.410;2023-08-07T12:36:00;20.90;99.90
34542;DHT22;20784;51.332;12.410;2023-08-07T12:38:26;21.00;99.90
34542;DHT22;20784;51.332;12.410;2023-08-07T12:40:52;21.00;99.90
34542;DHT22;20784;51.332;12.410;2023-08-07T12:43:18;20.90;99.90
34542;DHT22;20784;51.332;12.410;2023-08-07T12:45:44;20.80;99.90
34542;DHT22;20784;51.332;12.410;2023-08-07T12:48:12;20.80;99.90
34542;DHT22;20784;51.332;12.410;2023-08-07T12:50:41;20.80;99.90
34542;DHT22;20784;51.332;12.410;2023-08-07T12:53:08;20.60;99.90
34542;DHT22;20784;51.332;12.410;2023-08-07T12:55:52;20.30;99.90
34542;DHT22;20784;51.332;12.410;2023-08-07T12:58:17;20.30;99.90
34542;DHT22;20784;51.332;12.410;2023-08-07T13:00:46;20.30;99.90
34542;DHT22;20784;51.332;12.410;2023-08-07T13:03:14;20.30;99.90
34542;DHT22;20784;51.332;12.410;2023-08-07T13:05:42;20.30;99.90
34542;DHT22;20784;51.332;12.410;2023-08-07T13:08:08;20.30;99.90
34542;DHT22;20784;51.332;12.410;2023-08-07T13:10:41;20.30;99.90
34542;DHT22;20784;51.332;12.410;2023-08-07T13:13:10;20.20;99.90
34542;DHT22;20784;51.332;12.410;2023-08-07T13:15:40;20.20;99.90
34542;DHT22;20784;51.332;12.410;2023-08-07T13:18:06;20.30;99.90
34542;DHT22;20784;51.332;12.410;2023-08-07T13:20:32;20.10;99.90
34542;DHT22;20784;51.332;12.410;2023-08-07T13:22:59;20.00;99.90
34542;DHT22;20784;51.332;12.410;2023-08-07T13:25:25;20.30;99.90
34542;DHT22;20784;51.332;12.410;2023-08-07T13:27:57;20.50;99.90
34542;DHT22;20784;51.332;12.410;2023-08-07T13:30:23;20.60;99.90
34542;DHT22;20784;51.332;12.410;2023-08-07T13:32:54;20.50;99.90
34542;DHT22;20784;51.332;12.410;2023-08-07T13:35:22;20.00;99.90
34542;DHT22;20784;51.332;12.410;2023-08-07T13:37:48;20.00;99.90
34542;DHT22;20784;51.332;12.410;2023-08-07T13:40:13;19.90;99.90
34542;DHT22;20784;51.332;12.410;2023-08-07T13:42:39;19.60;99.90
34542;DHT22;20784;51.332;12.410;2023-08-07T13:45:07;19.30;99.90
34542;DHT22;20784;51.332;12.410;2023-08-07T13:47:35;19.30;99.90
34542;DHT22;20784;51.332;12.410;2023-08-07T13:50:03;19.00;99.90
34542;DHT22;20784;51.332;12.410;2023-08-07T13:52:29;18.80;99.90
34542;DHT22;20784;51.332;12.410;2023-08-07T13:54:55;18.80;99.90
34542;DHT22;20784;51.332;12.410;2023-08-07T13:57:20;18.70;99.90
34542;DHT22;20784;51.332;12.410;2023-08-07T13:59:46;18.50;99.90
34542;DHT22;20784;51.332;12.410;2023-08-07T14:02:12;18.40;99.90
34542;DHT22;20784;51.332;12.410;2023-08-07T14:04:37;18.30;99.90
34542;DHT22;20784;51.332;12.410;2023-08-07T14:07:06;18.20;99.90
34542;DHT22;20784;51.332;12.410;2023-08-07T14:09:32;18.10;99.90
34542;DHT22;20784;51.332;12.410;2023-08-07T14:11:57;18.10;99.90
34542;DHT22;20784;51.332;12.410;2023-08-07T14:14:23;18.30;99.90
34542;DHT22;20784;51.332;12.410;2023-08-07T14:16:49;18.40;99.90
34542;DHT22;20784;51.332;12.410;2023-08-07T14:19:14;18.50;99.90
34542;DHT22;20784;51.332;12.410;2023-08-07T14:21:40;18.50;99.90
34542;DHT22;20784;51.332;12.410;2023-08-07T14:24:06;18.60;99.90
34542;DHT22;20784;51.332;12.410;2023-08-07T14:26:31;18.50;99.90
34542;DHT22;20784;51.332;12.410;2023-08-07T14:28:57;18.20;99.90
34542;DHT22;20784;51.332;12.410;2023-08-07T14:31:22;17.90;99.90
34542;DHT22;20784;51.332;12.410;2023-08-07T14:33:48;17.70;99.90
34542;DHT22;20784;51.332;12.410;2023-08-07T14:36:14;17.50;99.90
34542;DHT22;20784;51.332;12.410;2023-08-07T14:38:40;17.40;99.90
34542;DHT22;20784;51.332;12.410;2023-08-07T14:41:06;17.20;99.90
34542;DHT22;20784;51.332;12.410;2023-08-07T14:43:31;17.20;99.90
34542;DHT22;20784;51.332;12.410;2023-08-07T14:45:59;17.20;99.90
34542;DHT22;20784;51.332;12.410;2023-08-07T14:48:25;17.20;99.90
34542;DHT22;20784;51.332;12.410;2023-08-07T14:50:51;17.10;99.90
34542;DHT22;20784;51.332;12.410;2023-08-07T14:53:19;17.10;99.90
34542;DHT22;20784;51.332;12.410;2023-08-07T14:55:48;17.20;99.90
34542;DHT22;20784;51.332;12.410;2023-08-07T14:58:16;17.40;99.90
34542;DHT22;20784;51.332;12.410;2023-08-07T15:00:42;17.60;99.90
34542;DHT22;20784;51.332;12.410;2023-08-07T15:03:16;17.70;99.90
34542;DHT22;20784;51.332;12.410;2023-08-07T15:05:44;17.90;99.90
34542;DHT22;20784;51.332;12.410;2023-08-07T15:08:10;18.00;99.90
34542;DHT22;20784;51.332;12.410;2023-08-07T15:10:35;18.20;99.90
34542;DHT22;20784;51.332;12.410;2023-08-07T15:13:02;18.30;99.90
34542;DHT22;20784;51.332;12.410;2023-08-07T15:15:27;18.70;99.90
34542;DHT22;20784;51.332;12.410;2023-08-07T15:17:53;18.80;99.90
34542;DHT22;20784;51.332;12.410;2023-08-07T15:20:19;19.00;99.90
34542;DHT22;20784;51.332;12.410;2023-08-07T15:22:46;19.10;99.90
34542;DHT22;20784;51.332;12.410;2023-08-07T15:25:13;19.30;99.90